Time;durP1;ratioP1;P1;durP2;ratioP2;P2;SDS_P1;SDS_P2;PMS_P1;PMS_P2;Temp;Humidity;BMP_temperature;BMP_pressure;BME280_temperature;BME280_humidity;BME280_pressure;Samples;Min_cycle;Max_cycle;Signal;HPM_P1;HPM_P2
2021/04/04 00:02:20;;;;;;;21.37;4.53;;;;;;;;;;5227516;27;20041;-85
2021/04/04 00:04:53;;;;;;;21.37;4.78;;;;;;;;;;5230858;27;20030;-85
2021/04/04 00:07:21;;;;;;;19.62;4.00;;;;;;;;;;5226303;27;20046;-85
2021/04/04 00:09:49;;;;;;;24.08;4.30;;;;;;;;;;5224801;27;20398;-86
2021/04/04 00:12:18;;;;;;;16.60;3.67;;;;;;;;;;5231473;27;20042;-84
2021/04/04 00:14:46;;;;;;;21.87;4.43;;;;;;;;;;5214235;27;20041;-85
2021/04/04 00:17:14;;;;;;;20.25;4.20;;;;;;;;;;5228756;27;20096;-85
2021/04/04 00:19:42;;;;;;;24.00;4.35;;;;;;;;;;5224709;27;20073;-86
2021/04/04 00:22:10;;;;;;;17.40;4.20;;;;;;;;;;5226872;27;20384;-86
2021/04/04 00:24:45;;;;;;;23.02;3.85;;;;;;;;;;5229693;27;20020;-83
2021/04/04 00:27:13;;;;;;;15.80;3.90;;;;;;;;;;5228402;27;20346;-84
2021/04/04 00:29:41;;;;;;;21.87;4.50;;;;;;;;;;5226193;27;20037;-84
2021/04/04 00:32:09;;;;;;;23.65;3.87;;;;;;;;;;5231092;27;20154;-85
2021/04/04 00:34:37;;;;;;;22.85;4.25;;;;;;;;;;5232621;27;20022;-83
2021/04/04 00:37:05;;;;;;;19.75;4.85;;;;;;;;;;5226763;27;20077;-84
2021/04/04 00:39:33;;;;;;;17.90;4.57;;;;;;;;;;5227290;27;20068;-84
2021/04/04 00:42:01;;;;;;;21.73;4.00;;;;;;;;;;5230705;27;20051;-85
2021/04/04 00:44:30;;;;;;;20.83;4.40;;;;;;;;;;5230421;27;20045;-85
2021/04/04 00:46:57;;;;;;;21.70;4.12;;;;;;;;;;5226956;27;20069;-84
2021/04/04 00:49:26;;;;;;;22.60;4.10;;;;;;;;;;5229360;27;20437;-83
2021/04/04 00:51:54;;;;;;;20.60;4.20;;;;;;;;;;5232640;27;20041;-84
2021/04/04 00:54:23;;;;;;;23.85;4.32;;;;;;;;;;5234301;27;20368;-84
2021/04/04 00:56:51;;;;;;;16.00;3.85;;;;;;;;;;5229856;27;20388;-84
2021/04/04 00:59:20;;;;;;;19.15;4.05;;;;;;;;;;5229047;27;20027;-84
2021/04/04 01:01:48;;;;;;;18.25;4.22;;;;;;;;;;5232918;27;20397;-85
2021/04/04 01:04:16;;;;;;;17.17;3.83;;;;;;;;;;5228690;27;20081;-85
2021/04/04 01:06:44;;;;;;;19.67;4.22;;;;;;;;;;5230830;27;20030;-83
2021/04/04 01:09:12;;;;;;;23.33;4.65;;;;;;;;;;5231557;27;20365;-84
2021/04/04 01:11:56;;;;;;;18.65;4.65;;;;;;;;;;5230986;27;20030;-84
2021/04/04 01:14:30;;;;;;;19.03;3.93;;;;;;;;;;5194795;27;20034;-85
2021/04/04 01:16:59;;;;;;;;;;;;;;;;;;5227401;27;20058;-84
2021/04/04 01:19:44;;;;;;;17.58;4.07;;;;;;;;;;5230728;27;20352;-84
2021/04/04 01:22:31;;;;;;;21.20;4.25;;;;;;;;;;5209589;27;20061;-84
2021/04/04 01:27:56;;;;;;;11.27;3.42;;;;;;;;;;5209181;27;20219;-84
2021/04/04 01:30:26;;;;;;;20.62;4.28;;;;;;;;;;5214082;27;20026;-84
2021/04/04 01:32:54;;;;;;;17.00;3.60;;;;;;;;;;5227275;27;20021;-84
2021/04/04 01:35:24;;;;;;;24.37;4.57;;;;;;;;;;5203567;27;20050;-85
2021/04/04 01:37:53;;;;;;;20.15;4.37;;;;;;;;;;5232031;27;20338;-85
2021/04/04 01:40:22;;;;;;;18.02;4.30;;;;;;;;;;5230227;27;20030;-84
2021/04/04 01:42:53;;;;;;;18.37;3.78;;;;;;;;;;5222029;27;20065;-85
2021/04/04 01:45:25;;;;;;;18.73;3.65;;;;;;;;;;5225252;27;20520;-85
2021/04/04 01:47:55;;;;;;;19.90;3.65;;;;;;;;;;5226235;27;20054;-84
2021/04/04 01:50:24;;;;;;;16.30;3.75;;;;;;;;;;5229083;27;20066;-84
2021/04/04 01:52:52;;;;;;;12.90;3.47;;;;;;;;;;5207222;27;20054;-85
2021/04/04 01:55:21;;;;;;;16.83;3.72;;;;;;;;;;5214600;27;20050;-86
2021/04/04 01:57:50;;;;;;;16.45;3.70;;;;;;;;;;5230171;27;20038;-85
2021/04/04 02:00:21;;;;;;;20.95;3.50;;;;;;;;;;5205679;27;20529;-84
2021/04/04 02:02:50;;;;;;;19.98;3.30;;;;;;;;;;5218648;27;20472;-84
2021/04/04 02:05:18;;;;;;;25.17;3.97;;;;;;;;;;5204294;27;20033;-85
2021/04/04 02:07:50;;;;;;;17.75;4.03;;;;;;;;;;5231236;27;20057;-84
2021/04/04 02:10:20;;;;;;;22.50;3.87;;;;;;;;;;5220231;27;20058;-84
2021/04/04 02:13:08;;;;;;;18.70;4.00;;;;;;;;;;5218139;27;20041;-85
2021/04/04 02:15:37;;;;;;;20.95;4.15;;;;;;;;;;5225688;27;20034;-84
2021/04/04 02:18:09;;;;;;;16.87;4.30;;;;;;;;;;5229501;27;20037;-84
2021/04/04 02:20:38;;;;;;;22.65;4.28;;;;;;;;;;5220586;27;20058;-84
2021/04/04 02:23:08;;;;;;;18.85;4.10;;;;;;;;;;5218638;27;20185;-85
2021/04/04 02:25:36;;;;;;;22.75;4.10;;;;;;;;;;5201215;27;20061;-85
2021/04/04 02:28:05;;;;;;;19.70;3.62;;;;;;;;;;5230694;27;20022;-84
2021/04/04 02:30:34;;;;;;;20.15;3.58;;;;;;;;;;5228612;27;20422;-85
2021/04/04 02:33:09;;;;;;;20.12;4.25;;;;;;;;;;5228875;27;20030;-84
2021/04/04 02:35:38;;;;;;;20.98;3.35;;;;;;;;;;5210721;27;20027;-85
2021/04/04 02:38:11;;;;;;;22.05;3.62;;;;;;;;;;5227260;27;20039;-84
2021/04/04 02:40:41;;;;;;;21.15;3.90;;;;;;;;;;5228024;27;20038;-85
2021/04/04 02:43:12;;;;;;;15.30;3.42;;;;;;;;;;5224490;27;20026;-84
2021/04/04 02:45:41;;;;;;;21.77;3.83;;;;;;;;;;5224968;27;20025;-85
2021/04/04 02:48:14;;;;;;;17.02;3.12;;;;;;;;;;5203008;27;20316;-85
2021/04/04 02:50:43;;;;;;;19.20;3.70;;;;;;;;;;5229743;27;20062;-85
2021/04/04 02:53:13;;;;;;;22.13;3.92;;;;;;;;;;5227833;27;20026;-84
2021/04/04 02:55:41;;;;;;;15.13;3.65;;;;;;;;;;5223924;27;20058;-85
2021/04/04 02:58:10;;;;;;;14.50;3.10;;;;;;;;;;5205630;27;20054;-84
2021/04/04 03:00:39;;;;;;;22.42;4.20;;;;;;;;;;5227960;27;20064;-85
2021/04/04 03:03:09;;;;;;;19.25;3.72;;;;;;;;;;5206869;27;20042;-85
2021/04/04 03:05:38;;;;;;;20.65;3.78;;;;;;;;;;5209629;27;20440;-84
2021/04/04 03:08:07;;;;;;;18.75;3.15;;;;;;;;;;5226398;27;20027;-85
2021/04/04 03:10:36;;;;;;;12.23;2.80;;;;;;;;;;5233718;27;20091;-96
2021/04/04 03:13:07;;;;;;;16.75;3.40;;;;;;;;;;5217344;27;20030;-96
2021/04/04 03:15:38;;;;;;;18.75;4.07;;;;;;;;;;5219665;27;20018;-95
2021/04/04 03:18:08;;;;;;;18.17;3.65;;;;;;;;;;5219856;27;20018;-95
2021/04/04 03:20:36;;;;;;;20.60;4.00;;;;;;;;;;5223488;27;20040;-94
2021/04/04 03:23:04;;;;;;;14.65;3.30;;;;;;;;;;5217326;27;20097;-93
2021/04/04 03:25:33;;;;;;;16.92;3.53;;;;;;;;;;5219806;27;20045;-94
2021/04/04 03:28:03;;;;;;;20.88;3.22;;;;;;;;;;5221425;27;20067;-96
2021/04/04 03:30:36;;;;;;;22.60;4.05;;;;;;;;;;5223029;27;20116;-96
2021/04/04 03:33:07;;;;;;;18.52;3.65;;;;;;;;;;5222064;27;20037;-95
2021/04/04 03:35:36;;;;;;;17.35;3.60;;;;;;;;;;5219537;27;20041;-95
2021/04/04 03:38:06;;;;;;;18.90;3.85;;;;;;;;;;5220268;27;20381;-94
2021/04/04 03:40:37;;;;;;;18.83;3.58;;;;;;;;;;5221796;27;20034;-93
2021/04/04 03:43:28;;;;;;;19.77;3.30;;;;;;;;;;5222759;27;20037;-93
2021/04/04 03:46:01;;;;;;;15.05;3.90;;;;;;;;;;5219390;27;20353;-94
2021/04/04 03:48:30;;;;;;;17.62;3.53;;;;;;;;;;5221172;27;20024;-93
2021/04/04 03:51:03;;;;;;;21.70;3.75;;;;;;;;;;5220929;27;20049;-94
2021/04/04 03:53:33;;;;;;;20.00;3.45;;;;;;;;;;5218882;27;20346;-94
2021/04/04 03:56:05;;;;;;;18.62;3.85;;;;;;;;;;5220616;27;20315;-95
2021/04/04 03:58:39;;;;;;;22.85;3.45;;;;;;;;;;5237134;27;20052;-95
2021/04/04 04:01:08;;;;;;;16.23;3.75;;;;;;;;;;5218954;27;20026;-95
2021/04/04 04:03:42;;;;;;;12.65;3.37;;;;;;;;;;5221564;27;20044;-94
2021/04/04 04:06:13;;;;;;;13.75;3.17;;;;;;;;;;5223011;27;20029;-93
2021/04/04 04:08:42;;;;;;;17.48;3.62;;;;;;;;;;5223291;27;20026;-94
2021/04/04 04:11:15;;;;;;;16.30;3.33;;;;;;;;;;5221449;27;20732;-94
2021/04/04 04:13:45;;;;;;;18.08;3.30;;;;;;;;;;5220842;27;20038;-95
2021/04/04 04:16:16;;;;;;;19.62;3.65;;;;;;;;;;5224016;27;20035;-94
2021/04/04 04:18:46;;;;;;;11.57;3.00;;;;;;;;;;5223809;27;20061;-95
2021/04/04 04:21:18;;;;;;;16.42;3.55;;;;;;;;;;5220727;27;20077;-95
2021/04/04 04:23:48;;;;;;;17.62;3.15;;;;;;;;;;5222596;27;20022;-94
2021/04/04 04:26:18;;;;;;;16.60;3.05;;;;;;;;;;5223697;27;20025;-93
2021/04/04 04:28:49;;;;;;;13.15;2.92;;;;;;;;;;5224583;27;20089;-96
2021/04/04 04:31:25;;;;;;;14.75;3.50;;;;;;;;;;5222660;27;20072;-94
2021/04/04 04:33:59;;;;;;;13.45;3.25;;;;;;;;;;5224823;27;20030;-93
2021/04/04 04:36:28;;;;;;;21.95;3.42;;;;;;;;;;5224689;27;20026;-94
2021/04/04 04:38:58;;;;;;;16.95;3.42;;;;;;;;;;5220931;27;20055;-94
2021/04/04 04:41:28;;;;;;;15.43;3.53;;;;;;;;;;5219070;27;20060;-94
2021/04/04 04:43:59;;;;;;;16.70;3.20;;;;;;;;;;5222057;27;20077;-94
2021/04/04 04:46:30;;;;;;;19.33;2.97;;;;;;;;;;5225912;27;20028;-96
2021/04/04 04:49:04;;;;;;;18.20;3.97;;;;;;;;;;5221172;27;20041;-93
2021/04/04 04:51:32;;;;;;;14.90;3.28;;;;;;;;;;5221746;27;20017;-94
2021/04/04 04:54:01;;;;;;;14.20;3.08;;;;;;;;;;5240015;27;20070;-95
2021/04/04 04:56:30;;;;;;;11.98;3.10;;;;;;;;;;5222090;27;20431;-94
2021/04/04 04:59:00;;;;;;;15.45;3.00;;;;;;;;;;5221197;27;20041;-94
2021/04/04 05:01:29;;;;;;;14.05;2.90;;;;;;;;;;5219994;27;20044;-94
2021/04/04 05:03:57;;;;;;;14.60;2.70;;;;;;;;;;5221557;27;20049;-96
2021/04/04 05:06:28;;;;;;;17.20;3.22;;;;;;;;;;5221617;27;20684;-93
2021/04/04 05:08:58;;;;;;;10.25;2.42;;;;;;;;;;5221534;27;20022;-93
2021/04/04 05:11:28;;;;;;;14.02;2.42;;;;;;;;;;5222310;27;20027;-94
2021/04/04 05:13:57;;;;;;;11.88;2.70;;;;;;;;;;5220652;27;20050;-96
2021/04/04 05:16:25;;;;;;;20.50;3.10;;;;;;;;;;5220722;27;20025;-94
2021/04/04 05:19:01;;;;;;;10.75;2.65;;;;;;;;;;5220744;27;20047;-95
2021/04/04 05:21:32;;;;;;;13.15;3.17;;;;;;;;;;5221883;27;20218;-93
2021/04/04 05:24:01;;;;;;;14.18;2.75;;;;;;;;;;5220761;27;20069;-95
2021/04/04 05:26:34;;;;;;;;;;;;;;;;;;5223138;27;20032;-95
2021/04/04 05:29:04;;;;;;;12.25;2.65;;;;;;;;;;5239207;27;19947;-94
2021/04/04 05:31:44;;;;;;;8.95;2.10;;;;;;;;;;5223039;27;20370;-94
2021/04/04 05:34:13;;;;;;;11.23;2.53;;;;;;;;;;5222292;27;20056;-94
2021/04/04 05:36:51;;;;;;;12.23;2.47;;;;;;;;;;5221743;27;20084;-93
2021/04/04 05:39:23;;;;;;;10.13;2.50;;;;;;;;;;5222223;27;20051;-94
2021/04/04 05:42:01;;;;;;;11.25;2.22;;;;;;;;;;5219613;27;20029;-92
2021/04/04 05:44:37;;;;;;;12.37;2.80;;;;;;;;;;5221459;27;20044;-94
2021/04/04 05:47:08;;;;;;;14.32;2.70;;;;;;;;;;5222692;27;20419;-93
2021/04/04 05:49:37;;;;;;;12.85;2.90;;;;;;;;;;5221034;27;20029;-94
2021/04/04 05:52:28;;;;;;;12.13;2.90;;;;;;;;;;5222022;27;20060;-95
2021/04/04 05:55:18;;;;;;;11.02;2.55;;;;;;;;;;5223358;27;20029;-93
2021/04/04 05:58:02;;;;;;;9.75;2.58;;;;;;;;;;5222153;27;20060;-94
2021/04/04 06:00:38;;;;;;;14.87;2.35;;;;;;;;;;5220434;27;20050;-94
2021/04/04 06:03:20;;;;;;;8.68;2.28;;;;;;;;;;5218080;27;20025;-93
2021/04/04 06:06:10;;;;;;;13.25;2.67;;;;;;;;;;5219261;27;20032;-94
2021/04/04 06:08:45;;;;;;;10.60;2.65;;;;;;;;;;5235253;27;20035;-95
2021/04/04 06:11:16;;;;;;;11.25;2.85;;;;;;;;;;5236060;27;20595;-95
2021/04/04 06:13:47;;;;;;;11.32;2.70;;;;;;;;;;5221697;27;20451;-96
2021/04/04 06:16:19;;;;;;;12.07;2.37;;;;;;;;;;5222821;27;20022;-95
2021/04/04 06:19:03;;;;;;;13.25;2.50;;;;;;;;;;5221844;27;20022;-95
2021/04/04 06:21:36;;;;;;;13.10;2.87;;;;;;;;;;5219762;27;20014;-94
2021/04/04 06:24:18;;;;;;;12.98;2.20;;;;;;;;;;5222969;27;20141;-94
2021/04/04 06:27:05;;;;;;;12.07;2.62;;;;;;;;;;5221787;27;20044;-94
2021/04/04 06:29:33;;;;;;;11.30;2.25;;;;;;;;;;5222734;27;20030;-96
2021/04/04 06:32:09;;;;;;;15.45;2.70;;;;;;;;;;5221023;27;20043;-92
2021/04/04 06:34:44;;;;;;;11.38;2.72;;;;;;;;;;5222009;27;20432;-92
2021/04/04 06:37:30;;;;;;;10.38;2.50;;;;;;;;;;5219880;27;20025;-93
2021/04/04 06:40:04;;;;;;;9.40;2.47;;;;;;;;;;5215558;27;20051;-95
2021/04/04 06:42:46;;;;;;;11.18;2.53;;;;;;;;;;5219398;27;20337;-94
2021/04/04 06:45:26;;;;;;;12.43;2.55;;;;;;;;;;5220898;27;20022;-94
2021/04/04 06:47:57;;;;;;;10.52;2.50;;;;;;;;;;5221682;27;20112;-94
2021/04/04 06:50:27;;;;;;;9.65;2.40;;;;;;;;;;5220062;27;20022;-94
2021/04/04 06:53:17;;;;;;;13.35;2.92;;;;;;;;;;5220895;27;20435;-94
2021/04/04 06:55:58;;;;;;;15.55;2.95;;;;;;;;;;5220637;27;20379;-94
2021/04/04 06:58:32;;;;;;;13.35;2.70;;;;;;;;;;5220654;27;20060;-94
2021/04/04 07:01:02;;;;;;;7.80;2.40;;;;;;;;;;5221615;27;20494;-94
2021/04/04 07:03:38;;;;;;;13.52;2.62;;;;;;;;;;5221691;27;20027;-94
2021/04/04 07:06:17;;;;;;;10.18;2.47;;;;;;;;;;5239497;27;20033;-94
2021/04/04 07:09:01;;;;;;;15.57;2.80;;;;;;;;;;5221018;27;20033;-93
2021/04/04 07:11:35;;;;;;;11.90;2.33;;;;;;;;;;5240126;27;20034;-95
2021/04/04 07:14:25;;;;;;;8.00;2.07;;;;;;;;;;5222046;27;20470;-94
2021/04/04 07:17:05;;;;;;;7.50;2.15;;;;;;;;;;5222595;27;20077;-92
2021/04/04 07:19:39;;;;;;;17.27;2.58;;;;;;;;;;5217565;27;20023;-93
2021/04/04 07:22:22;;;;;;;10.57;2.15;;;;;;;;;;5219930;27;20080;-95
2021/04/04 07:25:08;;;;;;;9.38;2.17;;;;;;;;;;5221512;27;20082;-94
2021/04/04 07:27:58;;;;;;;8.20;2.60;;;;;;;;;;5221145;27;20037;-96
2021/04/04 07:30:31;;;;;;;12.98;2.42;;;;;;;;;;5221298;27;20028;-94
2021/04/04 07:33:03;;;;;;;10.88;2.25;;;;;;;;;;5238809;27;20429;-93
2021/04/04 07:35:57;;;;;;;9.35;2.40;;;;;;;;;;5224332;27;20088;-96
2021/04/04 07:38:46;;;;;;;17.50;3.05;;;;;;;;;;5227580;27;20036;-93
2021/04/04 07:41:28;;;;;;;9.02;2.20;;;;;;;;;;5222577;27;20077;-93
2021/04/04 07:43:59;;;;;;;12.55;2.40;;;;;;;;;;5219956;27;20425;-93
2021/04/04 07:46:34;;;;;;;11.57;2.03;;;;;;;;;;5221191;27;20036;-94
2021/04/04 07:49:03;;;;;;;9.32;2.08;;;;;;;;;;5237911;27;20040;-95
2021/04/04 07:51:38;;;;;;;9.23;2.22;;;;;;;;;;5221241;27;20128;-93
2021/04/04 07:54:13;;;;;;;7.07;2.08;;;;;;;;;;5223856;27;20022;-94
2021/04/04 07:56:50;;;;;;;9.00;2.92;;;;;;;;;;5223776;27;20023;-94
2021/04/04 07:59:32;;;;;;;12.23;2.97;;;;;;;;;;5217013;27;20057;-94
2021/04/04 08:02:12;;;;;;;8.65;2.30;;;;;;;;;;5221117;27;20453;-94
2021/04/04 08:04:41;;;;;;;8.43;3.05;;;;;;;;;;5221384;27;20111;-96
2021/04/04 08:07:17;;;;;;;11.80;2.15;;;;;;;;;;5222580;27;20053;-94
2021/04/04 08:09:58;;;;;;;12.52;2.62;;;;;;;;;;5223843;27;20022;-92
2021/04/04 08:12:42;;;;;;;9.77;3.03;;;;;;;;;;5236061;27;20027;-95
2021/04/04 08:15:19;;;;;;;7.18;1.90;;;;;;;;;;5217768;27;20041;-95
2021/04/04 08:18:05;;;;;;;7.62;2.70;;;;;;;;;;5217708;27;20053;-95
2021/04/04 08:20:55;;;;;;;6.95;1.87;;;;;;;;;;5215271;27;20053;-94
2021/04/04 08:23:26;;;;;;;9.23;2.10;;;;;;;;;;5214533;27;20036;-93
2021/04/04 08:26:00;;;;;;;10.40;2.53;;;;;;;;;;5218346;27;20083;-94
2021/04/04 08:28:34;;;;;;;10.75;2.00;;;;;;;;;;5216161;27;20347;-95
2021/04/04 08:31:12;;;;;;;7.97;2.30;;;;;;;;;;5237853;27;20033;-95
2021/04/04 08:33:48;;;;;;;7.87;1.83;;;;;;;;;;5222077;27;20396;-95
2021/04/04 08:36:23;;;;;;;9.65;2.33;;;;;;;;;;5223543;27;20033;-95
2021/04/04 08:38:57;;;;;;;9.15;2.15;;;;;;;;;;5224804;27;20029;-96
2021/04/04 08:41:30;;;;;;;12.90;2.12;;;;;;;;;;5226252;27;20435;-96
2021/04/04 08:44:11;;;;;;;9.32;2.80;;;;;;;;;;5242026;27;20032;-96
2021/04/04 08:46:47;;;;;;;10.02;2.45;;;;;;;;;;5238105;27;20063;-94
2021/04/04 08:49:17;;;;;;;8.98;2.00;;;;;;;;;;5223273;27;20037;-94
2021/04/04 08:52:03;;;;;;;7.60;2.00;;;;;;;;;;5240119;27;20045;-95
2021/04/04 08:54:33;;;;;;;7.07;1.90;;;;;;;;;;5223016;27;20068;-96
2021/04/04 08:57:05;;;;;;;8.10;1.98;;;;;;;;;;5237490;27;20019;-93
2021/04/04 08:59:35;;;;;;;7.55;2.20;;;;;;;;;;5219389;27;20514;-94
2021/04/04 09:02:11;;;;;;;20.62;2.92;;;;;;;;;;5244162;27;20093;-93
2021/04/04 09:04:45;;;;;;;7.47;1.77;;;;;;;;;;5225149;27;20026;-96
2021/04/04 09:07:26;;;;;;;7.72;2.28;;;;;;;;;;5226385;27;20051;-96
2021/04/04 09:10:16;;;;;;;10.82;2.40;;;;;;;;;;5261401;27;20022;-96
2021/04/04 09:12:47;;;;;;;;;;;;;;;;;;5244114;27;20460;-96
2021/04/04 09:15:21;;;;;;;13.07;2.03;;;;;;;;;;5227370;27;19976;-95
2021/04/04 09:17:54;;;;;;;9.02;2.05;;;;;;;;;;5225791;27;20030;-96
2021/04/04 09:20:52;;;;;;;9.60;2.40;;;;;;;;;;5229268;27;20340;-96
2021/04/04 09:23:37;;;;;;;22.65;3.72;;;;;;;;;;5248565;27;20056;-95
2021/04/04 09:26:30;;;;;;;8.88;1.90;;;;;;;;;;5229398;27;20030;-95
2021/04/04 09:29:02;;;;;;;12.40;2.30;;;;;;;;;;5225332;27;20036;-95
2021/04/04 09:31:32;;;;;;;12.35;2.53;;;;;;;;;;5225645;27;20029;-96
2021/04/04 09:34:06;;;;;;;8.57;2.35;;;;;;;;;;5226626;27;20423;-95
2021/04/04 09:37:08;;;;;;;11.57;2.70;;;;;;;;;;5233606;27;20038;-95
2021/04/04 09:39:49;;;;;;;5.50;1.73;;;;;;;;;;5251131;27;20049;-95
2021/04/04 09:42:34;;;;;;;11.52;2.40;;;;;;;;;;5233198;27;20470;-96
2021/04/04 09:48:40;;;;;;;8.05;2.25;;;;;;;;;;5240503;27;20036;-93
2021/04/04 09:51:15;;;;;;;17.67;2.62;;;;;;;;;;5223634;27;20034;-95
2021/04/04 09:53:49;;;;;;;8.13;2.40;;;;;;;;;;5224442;27;20034;-94
2021/04/04 09:56:31;;;;;;;11.07;2.62;;;;;;;;;;5224976;27;20045;-96
2021/04/04 09:58:59;;;;;;;13.57;2.70;;;;;;;;;;5224585;27;20060;-94
2021/04/04 10:01:45;;;;;;;18.80;2.83;;;;;;;;;;5227502;27;20032;-95
2021/04/04 10:04:17;;;;;;;8.02;2.53;;;;;;;;;;5223896;27;20102;-94
2021/04/04 10:06:57;;;;;;;7.28;2.80;;;;;;;;;;5221153;27;20048;-95
2021/04/04 10:09:39;;;;;;;12.00;3.03;;;;;;;;;;5223921;27;20108;-95
2021/04/04 10:12:08;;;;;;;7.35;2.40;;;;;;;;;;5238741;27;20044;-95
2021/04/04 10:14:36;;;;;;;8.02;2.75;;;;;;;;;;5221707;27;20041;-96
2021/04/04 10:17:13;;;;;;;19.80;3.35;;;;;;;;;;5222596;27;20022;-96
2021/04/04 10:19:59;;;;;;;6.57;2.15;;;;;;;;;;5224964;27;20510;-95
2021/04/04 10:22:28;;;;;;;7.80;2.40;;;;;;;;;;5223085;27;20014;-93
2021/04/04 10:25:05;;;;;;;8.02;2.40;;;;;;;;;;5221854;27;20076;-95
2021/04/04 10:27:38;;;;;;;9.07;2.50;;;;;;;;;;5222058;27;20077;-94
2021/04/04 10:30:15;;;;;;;21.75;3.60;;;;;;;;;;5221155;27;20029;-95
2021/04/04 10:32:47;;;;;;;6.65;2.20;;;;;;;;;;5223053;27;20027;-94
2021/04/04 10:35:29;;;;;;;8.68;2.05;;;;;;;;;;5222672;27;20029;-95
2021/04/04 10:38:30;;;;;;;15.25;3.08;;;;;;;;;;5223147;27;20019;-95
2021/04/04 10:41:00;;;;;;;11.18;2.67;;;;;;;;;;5197210;27;20022;-95
2021/04/04 10:43:33;;;;;;;;;;;;;;;;;;5220534;27;20456;-94
2021/04/04 10:46:08;;;;;;;8.70;2.90;;;;;;;;;;5223290;27;19981;-96
2021/04/04 10:48:45;;;;;;;9.27;2.47;;;;;;;;;;5237673;27;20014;-96
2021/04/04 10:51:17;;;;;;;11.75;3.12;;;;;;;;;;5222567;27;20029;-94
2021/04/04 10:53:46;;;;;;;14.35;2.85;;;;;;;;;;5222678;27;20022;-95
2021/04/04 10:56:20;;;;;;;11.05;2.40;;;;;;;;;;5240565;27;20032;-93
2021/04/04 10:58:49;;;;;;;9.77;2.53;;;;;;;;;;5219724;27;20346;-96
2021/04/04 11:01:20;;;;;;;12.43;2.90;;;;;;;;;;5223681;27;20046;-95
2021/04/04 11:03:55;;;;;;;8.10;2.53;;;;;;;;;;5225962;27;20028;-95
2021/04/04 11:06:54;;;;;;;9.02;2.40;;;;;;;;;;5231908;27;20065;-95
2021/04/04 11:09:23;;;;;;;7.12;2.67;;;;;;;;;;5221785;27;20061;-94
2021/04/04 11:11:58;;;;;;;9.07;2.45;;;;;;;;;;5221991;27;20505;-95
2021/04/04 11:14:29;;;;;;;9.10;2.50;;;;;;;;;;5227569;27;20029;-95
2021/04/04 11:17:00;;;;;;;8.10;2.05;;;;;;;;;;5231807;27;20065;-94
2021/04/04 11:19:47;;;;;;;8.50;2.42;;;;;;;;;;5228559;27;20025;-96
2021/04/04 11:22:33;;;;;;;6.75;2.47;;;;;;;;;;5250550;27;20395;-95
2021/04/04 11:25:26;;;;;;;7.03;2.25;;;;;;;;;;5237449;27;20032;-95
2021/04/04 11:28:19;;;;;;;8.15;2.50;;;;;;;;;;5265437;27;20008;-95
2021/04/04 11:30:58;;;;;;;9.82;2.40;;;;;;;;;;5248238;27;20034;-95
2021/04/04 11:33:32;;;;;;;17.80;3.33;;;;;;;;;;5254893;27;20038;-95
2021/04/04 11:36:37;;;;;;;8.18;2.65;;;;;;;;;;5243138;27;20022;-96
2021/04/04 13:12:53;;;;;;;7.55;1.62;;;;;;;;;;5214516;27;20051;-82
2021/04/04 13:15:29;;;;;;;6.95;2.05;;;;;;;;;;5219414;27;20616;-84
2021/04/04 13:18:00;;;;;;;8.30;2.12;;;;;;;;;;5211147;27;20432;-83
2021/04/04 13:20:41;;;;;;;10.05;2.30;;;;;;;;;;5211521;27;20030;-85
2021/04/04 13:23:40;;;;;;;8.65;2.17;;;;;;;;;;5179047;27;20056;-87
2021/04/04 13:26:25;;;;;;;8.25;2.25;;;;;;;;;;5190287;27;20153;-85
2021/04/04 13:29:26;;;;;;;8.57;2.10;;;;;;;;;;5193777;27;20026;-82
2021/04/04 13:32:44;;;;;;;5.35;2.20;;;;;;;;;;5199992;27;20033;-87
2021/04/04 13:35:29;;;;;;;18.15;2.97;;;;;;;;;;5206594;27;20022;-84
2021/04/04 13:38:52;;;;;;;5.57;2.12;;;;;;;;;;5191369;27;20420;-84
2021/04/04 13:41:58;;;;;;;13.35;2.83;;;;;;;;;;5180785;27;20310;-87
2021/04/04 13:45:14;;;;;;;12.77;2.25;;;;;;;;;;5208119;27;20072;-84
2021/04/04 13:51:22;;;;;;;6.40;2.00;;;;;;;;;;5216310;27;20026;-84
2021/04/04 14:50:21;;;;;;;8.95;2.28;;;;;;;;;;5188066;27;20058;-85
2021/04/04 15:00:47;;;;;;;8.90;1.92;;;;;;;;;;5226332;27;20045;-88
2021/04/04 15:07:13;;;;;;;5.75;2.00;;;;;;;;;;5175777;27;20071;-86
2021/04/04 16:29:59;;;;;;;7.75;2.47;;;;;;;;;;5186526;27;20725;-83
2021/04/04 16:32:27;;;;;;;9.30;2.80;;;;;;;;;;5189600;27;20031;-83
2021/04/04 16:34:56;;;;;;;9.02;2.25;;;;;;;;;;5210206;27;20026;-84
2021/04/04 16:37:24;;;;;;;10.60;2.58;;;;;;;;;;5203219;27;20410;-84
2021/04/04 16:39:53;;;;;;;8.18;2.22;;;;;;;;;;5206609;27;20429;-84
2021/04/04 16:42:21;;;;;;;8.88;2.60;;;;;;;;;;5207158;27;20365;-83
2021/04/04 16:44:49;;;;;;;8.07;2.25;;;;;;;;;;5206535;27;20028;-84
2021/04/04 16:47:17;;;;;;;7.72;2.42;;;;;;;;;;5205932;27;20429;-84
2021/04/04 16:49:45;;;;;;;10.10;2.60;;;;;;;;;;5204548;27;20105;-84
2021/04/04 16:52:13;;;;;;;17.12;3.08;;;;;;;;;;5206462;27;20039;-84
2021/04/04 16:54:41;;;;;;;9.48;2.17;;;;;;;;;;5204854;27;20022;-84
2021/04/04 16:57:09;;;;;;;13.62;2.80;;;;;;;;;;5207558;27;20102;-85
2021/04/04 16:59:37;;;;;;;12.13;2.65;;;;;;;;;;5208658;27;20027;-84
2021/04/04 17:02:06;;;;;;;7.03;2.58;;;;;;;;;;5205758;27;20057;-85
2021/04/04 17:04:34;;;;;;;9.43;2.17;;;;;;;;;;5206810;27;20081;-84
2021/04/04 17:07:02;;;;;;;4.97;2.08;;;;;;;;;;5207462;27;20035;-84
2021/04/04 17:09:35;;;;;;;12.55;2.72;;;;;;;;;;5208601;27;20037;-84
2021/04/04 17:12:04;;;;;;;11.23;2.67;;;;;;;;;;5207095;27;20067;-85
2021/04/04 17:14:33;;;;;;;9.55;2.60;;;;;;;;;;5187216;27;20081;-85
2021/04/04 17:17:01;;;;;;;40.90;5.12;;;;;;;;;;5210123;27;20413;-84
2021/04/04 17:19:29;;;;;;;6.65;2.20;;;;;;;;;;5208492;27;20468;-84
2021/04/04 17:21:57;;;;;;;8.48;2.10;;;;;;;;;;5189121;27;20027;-84
2021/04/04 17:24:29;;;;;;;8.48;2.50;;;;;;;;;;5208447;27;20434;-85
2021/04/04 17:26:58;;;;;;;8.27;2.55;;;;;;;;;;5207565;27;20065;-84
2021/04/04 17:29:26;;;;;;;6.82;2.08;;;;;;;;;;5208500;27;20428;-84
2021/04/04 17:31:54;;;;;;;11.00;2.55;;;;;;;;;;5229998;27;20019;-84
2021/04/04 17:34:22;;;;;;;7.30;2.40;;;;;;;;;;5229711;27;20348;-84
2021/04/04 17:36:51;;;;;;;9.88;2.50;;;;;;;;;;5232454;27;20064;-84
2021/04/04 17:39:19;;;;;;;10.45;2.70;;;;;;;;;;5233339;27;20487;-84
2021/04/04 17:41:48;;;;;;;9.23;2.05;;;;;;;;;;5229673;27;20396;-85
2021/04/04 17:44:16;;;;;;;14.25;3.30;;;;;;;;;;5227813;27;20360;-84
2021/04/04 17:46:44;;;;;;;8.73;2.42;;;;;;;;;;5229368;27;20021;-84
2021/04/04 17:49:15;;;;;;;11.60;2.47;;;;;;;;;;5231150;27;20018;-83
2021/04/04 17:51:43;;;;;;;11.02;2.85;;;;;;;;;;5210601;27;20406;-85
2021/04/04 17:54:11;;;;;;;7.75;2.72;;;;;;;;;;5228363;27;20057;-84
2021/04/04 17:56:39;;;;;;;12.18;2.65;;;;;;;;;;5231189;27;20537;-84
2021/04/04 17:59:07;;;;;;;10.07;2.72;;;;;;;;;;5229613;27;20491;-84
2021/04/04 18:01:35;;;;;;;7.60;2.28;;;;;;;;;;5208922;27;20049;-84
2021/04/04 18:04:04;;;;;;;11.32;2.33;;;;;;;;;;5228993;27;20098;-84
2021/04/04 18:06:57;;;;;;;10.82;2.00;;;;;;;;;;5210270;27;20030;-84
2021/04/04 18:12:10;;;;;;;9.18;2.45;;;;;;;;;;5232430;27;20049;-84
2021/04/04 18:14:38;;;;;;;9.98;2.58;;;;;;;;;;5231462;27;20546;-83
2021/04/04 18:17:08;;;;;;;12.25;2.97;;;;;;;;;;5231621;27;20029;-84
2021/04/04 18:19:36;;;;;;;5.75;1.92;;;;;;;;;;5229425;27;20393;-84
2021/04/04 18:22:04;;;;;;;9.55;2.22;;;;;;;;;;5213362;27;20424;-83
2021/04/04 18:24:33;;;;;;;8.90;2.53;;;;;;;;;;5229454;27;20404;-85
2021/04/04 18:27:01;;;;;;;11.23;2.58;;;;;;;;;;5228197;27;20325;-83
2021/04/04 18:29:29;;;;;;;8.75;2.17;;;;;;;;;;5230823;27;20101;-84
2021/04/04 18:31:57;;;;;;;10.18;2.80;;;;;;;;;;5214060;27;20554;-84
2021/04/04 18:34:25;;;;;;;10.65;2.90;;;;;;;;;;5212170;27;20083;-84
2021/04/04 18:36:54;;;;;;;11.45;3.05;;;;;;;;;;5209898;27;20054;-84
2021/04/04 18:39:22;;;;;;;11.10;2.78;;;;;;;;;;5225145;27;20549;-85
2021/04/04 18:41:50;;;;;;;10.07;2.67;;;;;;;;;;5229744;27;20018;-83
2021/04/04 18:44:18;;;;;;;11.18;2.80;;;;;;;;;;5229466;27;20068;-85
2021/04/04 18:46:46;;;;;;;7.25;2.80;;;;;;;;;;5227384;27;20050;-84
2021/04/04 18:49:14;;;;;;;11.63;2.92;;;;;;;;;;5227126;27;20065;-83
2021/04/04 18:51:47;;;;;;;11.70;3.42;;;;;;;;;;5230803;27;20032;-84
2021/04/04 18:54:15;;;;;;;23.35;3.95;;;;;;;;;;5232386;27;20061;-84
2021/04/04 18:56:43;;;;;;;9.57;2.70;;;;;;;;;;5231601;27;20038;-84
2021/04/04 18:59:12;;;;;;;8.75;2.95;;;;;;;;;;5231538;27;20061;-83
2021/04/04 19:01:40;;;;;;;12.45;3.12;;;;;;;;;;5232341;27;20026;-83
2021/04/04 19:04:08;;;;;;;12.20;2.97;;;;;;;;;;5232173;27;20061;-84
2021/04/04 19:06:37;;;;;;;14.02;3.20;;;;;;;;;;5227237;27;20083;-84
2021/04/04 19:09:06;;;;;;;10.32;3.37;;;;;;;;;;5230486;27;20044;-83
2021/04/04 19:11:34;;;;;;;10.30;3.17;;;;;;;;;;5231579;27;20526;-84
2021/04/04 19:14:02;;;;;;;12.82;3.33;;;;;;;;;;5210295;27;20094;-84
2021/04/04 19:16:30;;;;;;;16.02;3.85;;;;;;;;;;5211804;27;20030;-84
2021/04/04 19:18:58;;;;;;;9.38;3.05;;;;;;;;;;5230981;27;20452;-84
2021/04/04 19:21:27;;;;;;;10.55;3.47;;;;;;;;;;5232550;27;20070;-84
2021/04/04 19:23:55;;;;;;;11.27;3.42;;;;;;;;;;5232053;27;20026;-84
2021/04/04 19:26:24;;;;;;;27.60;22.77;;;;;;;;;;5212456;27;20030;-84
2021/04/04 19:28:53;;;;;;;29.95;27.23;;;;;;;;;;5229799;27;20031;-84
2021/04/04 19:31:21;;;;;;;13.50;3.60;;;;;;;;;;5229363;27;20037;-84